Time;durP1;ratioP1;P1;durP2;ratioP2;P2;SDS_P1;SDS_P2;PMS_P1;PMS_P2;Temp;Humidity;BMP_temperature;BMP_pressure;BME280_temperature;BME280_humidity;BME280_pressure;Samples;Min_cycle;Max_cycle;Signal;HPM_P1;HPM_P2
2023/06/30 00:00:09;;;;;;;10.50;4.30;;;;;;;17.31;67.78;99463.06;105512;1256;60485;-56
2023/06/30 00:02:40;;;;;;;8.00;4.60;;;;;;;17.32;67.80;99463.85;106523;1255;60454;-56
2023/06/30 00:05:08;;;;;;;6.20;3.60;;;;;;;17.32;67.61;99462.14;105505;1256;63788;-57
2023/06/30 00:07:36;;;;;;;6.60;3.90;;;;;;;17.27;67.72;99464.59;105660;1256;60542;-59
2023/06/30 00:10:05;;;;;;;13.00;5.00;;;;;;;17.21;67.71;99464.27;105478;1257;63870;-56
2023/06/30 00:12:32;;;;;;;8.20;4.00;;;;;;;17.16;67.79;99459.07;105299;1256;60479;-57
2023/06/30 00:15:00;;;;;;;8.60;4.60;;;;;;;17.14;67.88;99459.59;105352;1256;60524;-56
2023/06/30 00:17:27;;;;;;;6.50;3.50;;;;;;;17.14;67.80;99453.05;105364;1256;65059;-58
2023/06/30 00:19:58;;;;;;;6.70;3.40;;;;;;;17.16;67.61;99449.17;105371;1258;61658;-58
2023/06/30 00:22:25;;;;;;;9.60;3.80;;;;;;;17.18;67.51;99448.16;105588;1257;63837;-56
2023/06/30 00:24:55;;;;;;;7.40;3.80;;;;;;;17.16;67.57;99444.48;105423;1256;60432;-57
2023/06/30 00:27:22;;;;;;;8.30;4.60;;;;;;;17.11;67.66;99444.62;105489;1256;60531;-57
2023/06/30 00:29:49;;;;;;;6.90;3.80;;;;;;;17.07;67.84;99444.73;105581;1259;65039;-61
2023/06/30 00:32:16;;;;;;;7.00;4.20;;;;;;;17.07;67.85;99444.38;105293;1258;61660;-58
2023/06/30 00:34:43;;;;;;;6.60;3.70;;;;;;;17.08;67.86;99444.27;105359;1254;64069;-56
2023/06/30 00:37:10;;;;;;;7.00;4.10;;;;;;;17.08;67.82;99444.77;105422;1254;60568;-56
2023/06/30 00:39:37;;;;;;;8.90;4.20;;;;;;;17.08;67.73;99443.86;105454;1254;60556;-57
2023/06/30 00:42:04;;;;;;;8.50;4.60;;;;;;;17.06;67.87;99440.80;105574;1259;65017;-56
2023/06/30 00:44:31;;;;;;;9.40;3.90;;;;;;;17.01;68.04;99438.33;105311;1256;61473;-61
2023/06/30 00:47:00;;;;;;;6.40;3.90;;;;;;;16.96;68.17;99439.84;105293;1261;63902;-61
2023/06/30 00:49:28;;;;;;;7.50;3.90;;;;;;;16.95;68.21;99435.21;108174;1256;59167;-56
2023/06/30 00:51:55;;;;;;;8.10;3.80;;;;;;;16.97;68.20;99434.48;105334;1256;60569;-57
2023/06/30 00:54:21;;;;;;;7.10;4.00;;;;;;;16.99;68.24;99436.67;105309;1260;65064;-57
2023/06/30 00:56:48;;;;;;;7.90;4.30;;;;;;;16.99;68.15;99429.90;105038;1263;60545;-57
2023/06/30 00:59:15;;;;;;;7.50;3.80;;;;;;;16.99;68.15;99426.61;105355;1260;60544;-56
2023/06/30 01:02:00;;;;;;;6.50;3.80;;;;;;;16.96;68.22;99430.27;105687;1257;60545;-60
2023/06/30 01:04:35;;;;;;;9.50;4.50;;;;;;;16.93;68.26;99431.91;105308;1256;60457;-55
2023/06/30 01:07:23;;;;;;;7.00;3.90;;;;;;;16.92;68.28;99431.73;108834;1255;65266;-56
2023/06/30 01:09:57;;;;;;;6.80;4.00;;;;;;;16.94;68.28;99439.56;109117;1256;60171;-57
2023/06/30 01:12:23;;;;;;;6.00;3.70;;;;;;;16.98;68.13;99437.40;109091;1255;62649;-56
2023/06/30 01:14:50;;;;;;;8.50;4.40;;;;;;;17.00;68.07;99442.79;109009;1255;58812;-57
2023/06/30 01:17:17;;;;;;;6.90;4.20;;;;;;;17.00;67.82;99441.48;109003;1255;58494;-57
2023/06/30 01:19:47;;;;;;;7.80;4.40;;;;;;;16.99;68.01;99444.05;106048;1255;64015;-56
2023/06/30 01:22:24;;;;;;;7.00;4.10;;;;;;;16.98;67.88;99446.48;105471;1259;61698;-56
2023/06/30 01:24:56;;;;;;;8.70;3.80;;;;;;;17.00;67.73;99452.35;105319;1256;62779;-57
2023/06/30 01:27:23;;;;;;;8.50;3.70;;;;;;;17.01;67.71;99449.47;105551;1256;60544;-58
2023/06/30 01:29:51;;;;;;;6.70;4.20;;;;;;;17.04;67.59;99447.57;105215;1256;60453;-59
2023/06/30 01:32:18;;;;;;;8.90;4.50;;;;;;;17.05;67.53;99450.98;105041;1263;65251;-57
2023/06/30 01:34:45;;;;;;;8.20;4.00;;;;;;;17.02;67.54;99453.78;105201;1257;61540;-57
2023/06/30 01:37:13;;;;;;;6.50;3.80;;;;;;;16.99;67.55;99452.19;105126;1261;63851;-57
2023/06/30 01:39:40;;;;;;;6.00;3.80;;;;;;;16.99;67.43;99446.81;105371;1256;60664;-56
2023/06/30 01:42:07;;;;;;;8.30;4.30;;;;;;;17.00;67.45;99448.30;105427;1256;60556;-58
2023/06/30 01:44:35;;;;;;;7.60;4.30;;;;;;;17.01;67.31;99449.19;105230;1256;65345;-57
2023/06/30 01:47:02;;;;;;;6.70;3.50;;;;;;;17.04;67.20;99450.97;105421;1256;61481;-58
2023/06/30 01:49:29;;;;;;;7.60;4.60;;;;;;;17.08;66.98;99461.77;105490;1258;64044;-57
2023/06/30 01:51:56;;;;;;;7.30;3.90;;;;;;;17.11;66.90;99465.88;106007;1256;60321;-56
2023/06/30 01:54:23;;;;;;;10.30;4.30;;;;;;;17.13;66.84;99464.85;105115;1255;60404;-56
2023/06/30 01:56:49;;;;;;;10.30;4.80;;;;;;;17.14;66.71;99468.05;105347;1258;65312;-57
2023/06/30 01:59:16;;;;;;;6.50;3.90;;;;;;;17.18;66.67;99466.58;105370;1256;61476;-57
2023/06/30 02:01:43;;;;;;;7.20;4.10;;;;;;;17.26;66.42;99471.69;107738;1256;63820;-64
2023/06/30 02:04:10;;;;;;;8.20;4.00;;;;;;;17.33;66.45;99473.31;105552;1259;60566;-56
2023/06/30 02:06:37;;;;;;;7.10;4.60;;;;;;;17.38;66.37;99475.30;105272;1256;60470;-56
2023/06/30 02:09:03;;;;;;;6.90;4.00;;;;;;;17.40;66.17;99476.41;105975;1260;64917;-57
2023/06/30 02:11:32;;;;;;;11.30;4.30;;;;;;;17.39;66.19;99475.42;105376;1259;61453;-56
2023/06/30 02:13:59;;;;;;;7.00;4.10;;;;;;;17.37;65.97;99472.45;105626;1259;63711;-56
2023/06/30 02:16:26;;;;;;;6.70;4.30;;;;;;;17.33;65.95;99468.65;105368;1255;60508;-57
2023/06/30 02:18:54;;;;;;;6.90;4.20;;;;;;;17.33;66.04;99464.03;105755;1255;60415;-57
2023/06/30 02:22:16;;;;;;;10.70;4.30;;;;;;;17.37;66.01;99458.46;105436;1259;65195;-57
2023/06/30 02:24:46;;;;;;;7.80;4.80;;;;;;;17.40;65.97;99465.11;105264;1256;61515;-56
2023/06/30 02:27:13;;;;;;;7.70;4.70;;;;;;;17.42;65.90;99475.86;104669;1267;63936;-57
2023/06/30 02:29:40;;;;;;;8.80;4.40;;;;;;;17.44;65.94;99481.98;105519;1259;60462;-57
2023/06/30 02:32:07;;;;;;;7.30;4.10;;;;;;;17.49;65.76;99485.54;105390;1256;60558;-56
2023/06/30 02:34:34;;;;;;;6.90;3.70;;;;;;;17.51;65.70;99482.54;105480;1257;65039;-58
2023/06/30 02:37:01;;;;;;;9.00;4.30;;;;;;;17.57;65.66;99482.70;105447;1256;61732;-57
2023/06/30 02:39:28;;;;;;;8.80;4.40;;;;;;;17.66;65.72;99483.16;105476;1256;63915;-57
2023/06/30 02:41:55;;;;;;;7.50;4.00;;;;;;;17.71;65.58;99482.83;105328;1256;60515;-57
2023/06/30 02:44:21;;;;;;;7.20;4.00;;;;;;;17.72;65.45;99479.16;105600;1256;60899;-56
2023/06/30 02:46:48;;;;;;;8.50;4.40;;;;;;;17.76;65.34;99477.77;105377;1261;64900;-56
2023/06/30 02:49:15;;;;;;;7.90;4.90;;;;;;;17.77;65.25;99475.96;105347;1259;60739;-59
2023/06/30 02:51:41;;;;;;;6.40;4.10;;;;;;;17.77;65.10;99475.27;105495;1257;63919;-57
2023/06/30 02:54:09;;;;;;;6.80;4.10;;;;;;;17.78;64.92;99480.64;105429;1256;60579;-57
2023/06/30 02:56:36;;;;;;;8.10;4.60;;;;;;;17.78;64.81;99477.33;105413;1259;60817;-56
2023/06/30 02:59:03;;;;;;;7.30;4.30;;;;;;;17.78;64.97;99473.86;105380;1261;65227;-56
2023/06/30 03:01:30;;;;;;;8.00;4.60;;;;;;;17.79;64.98;99478.86;105378;1256;61655;-56
2023/06/30 03:03:58;;;;;;;9.00;4.70;;;;;;;17.79;65.06;99478.53;105430;1256;63853;-56
2023/06/30 03:06:27;;;;;;;8.40;4.80;;;;;;;17.79;65.17;99479.06;105342;1256;60371;-60
2023/06/30 03:08:54;;;;;;;6.90;4.30;;;;;;;17.86;65.01;99479.29;105519;1256;60627;-55
2023/06/30 03:11:22;;;;;;;8.50;5.10;;;;;;;17.91;64.75;99475.16;105358;1256;65050;-56
2023/06/30 03:13:49;;;;;;;7.70;4.40;;;;;;;17.96;64.72;99478.90;105334;1256;62174;-58
2023/06/30 03:16:16;;;;;;;7.90;4.70;;;;;;;17.97;64.71;99484.81;105113;1259;64030;-57
2023/06/30 03:18:43;;;;;;;7.80;5.00;;;;;;;17.95;64.68;99481.80;105066;1256;60459;-56
2023/06/30 03:21:09;;;;;;;9.40;4.50;;;;;;;17.91;64.84;99482.17;104891;1259;302944;-54
2023/06/30 03:25:13;;;;;;;8.50;4.80;;;;;;;17.69;65.76;99477.70;103101;1295;601156;-57
2023/06/30 03:27:40;;;;;;;6.10;3.90;;;;;;;17.90;65.20;99478.44;104698;1270;60136;-60
2023/06/30 03:30:09;;;;;;;8.80;4.50;;;;;;;17.96;64.88;99477.18;104610;1267;59264;-57
2023/06/30 03:32:40;;;;;;;6.90;4.40;;;;;;;18.02;64.87;99480.73;104447;1270;62100;-63
2023/06/30 03:35:09;;;;;;;7.70;4.90;;;;;;;18.10;64.86;99479.16;104765;1267;61437;-58
2023/06/30 03:37:36;;;;;;;9.40;5.10;;;;;;;18.17;64.71;99479.73;104542;1270;62705;-56
2023/06/30 03:40:05;;;;;;;8.00;4.10;;;;;;;18.18;64.41;99479.23;104791;1270;194127;-57
2023/06/30 03:42:33;;;;;;;7.50;4.60;;;;;;;18.18;64.15;99478.12;104806;1263;59473;-58
2023/06/30 03:45:01;;;;;;;9.00;4.70;;;;;;;18.21;64.05;99474.57;104962;1270;63272;-57
2023/06/30 03:47:31;;;;;;;7.70;4.60;;;;;;;18.25;64.09;99472.63;104929;1271;61374;-57
2023/06/30 03:49:58;;;;;;;8.00;4.90;;;;;;;18.25;64.11;99478.86;105065;1269;63740;-63
2023/06/30 03:52:26;;;;;;;6.60;4.70;;;;;;;18.22;63.99;99485.27;104984;1267;59729;-59
2023/06/30 03:54:54;;;;;;;7.40;4.70;;;;;;;18.20;64.21;99477.44;105070;1269;59593;-56
2023/06/30 03:57:21;;;;;;;12.50;5.10;;;;;;;18.23;64.42;99471.89;104777;1269;64115;-57
2023/06/30 03:59:49;;;;;;;7.30;4.30;;;;;;;18.30;64.12;99475.00;104859;1264;61324;-62
2023/06/30 04:02:17;;;;;;;11.20;5.20;;;;;;;18.35;63.81;99470.27;104797;1268;63688;-57
2023/06/30 04:04:45;;;;;;;7.70;4.80;;;;;;;18.42;63.77;99470.73;104900;1269;59753;-59
2023/06/30 04:07:13;;;;;;;7.40;5.00;;;;;;;18.48;63.62;99476.29;104988;1267;59661;-56
2023/06/30 04:09:40;;;;;;;7.60;5.10;;;;;;;18.51;63.73;99481.27;104932;1267;64053;-58
2023/06/30 04:12:09;;;;;;;12.50;5.80;;;;;;;18.54;63.46;99480.17;105720;1256;61944;-58
2023/06/30 04:14:36;;;;;;;7.90;4.80;;;;;;;18.59;63.52;99476.84;105744;1254;63725;-56
2023/06/30 04:17:04;;;;;;;8.50;5.10;;;;;;;18.64;63.55;99476.41;105582;1257;60825;-57
2023/06/30 04:19:32;;;;;;;8.60;5.10;;;;;;;18.70;63.60;99479.02;105526;1251;59827;-59
2023/06/30 04:21:59;;;;;;;7.00;5.10;;;;;;;18.75;63.44;99473.55;105616;1251;64289;-60
2023/06/30 04:24:31;;;;;;;11.60;5.00;;;;;;;18.78;63.10;99479.05;105737;1256;60104;-57
2023/06/30 04:26:59;;;;;;;10.00;6.30;;;;;;;18.82;63.03;99471.79;105725;1251;63794;-56
2023/06/30 04:29:27;;;;;;;7.20;4.80;;;;;;;18.88;63.15;99474.90;105586;1256;60072;-57
2023/06/30 04:31:54;;;;;;;10.30;5.50;;;;;;;18.93;63.04;99478.20;105675;1251;59738;-61
2023/06/30 04:34:22;;;;;;;9.70;5.70;;;;;;;18.95;63.05;99475.83;105749;1251;64226;-61
2023/06/30 04:36:52;;;;;;;10.50;5.60;;;;;;;18.96;62.75;99486.05;106396;1251;61535;-58
2023/06/30 04:39:20;;;;;;;7.70;5.30;;;;;;;18.92;62.71;99475.63;105198;1264;63716;-56
2023/06/30 04:41:47;;;;;;;8.30;5.80;;;;;;;18.91;63.00;99482.05;105567;1254;59787;-57
2023/06/30 04:44:18;;;;;;;8.20;5.30;;;;;;;18.93;62.77;99477.63;106159;1254;59686;-57
2023/06/30 04:46:50;;;;;;;9.00;5.70;;;;;;;18.98;62.80;99475.59;105523;1251;64130;-61
2023/06/30 04:49:43;;;;;;;8.90;5.80;;;;;;;19.03;62.61;99479.04;105535;1251;60253;-57
2023/06/30 04:52:14;;;;;;;8.50;5.70;;;;;;;19.06;62.48;99473.86;105335;1264;62443;-56
2023/06/30 04:54:43;;;;;;;10.10;6.30;;;;;;;19.08;62.66;99471.08;105434;1251;59876;-60
2023/06/30 04:57:12;;;;;;;8.90;5.70;;;;;;;19.12;62.44;99478.72;105598;1256;59539;-59
2023/06/30 04:59:40;;;;;;;7.50;5.10;;;;;;;19.16;62.48;99475.98;105688;1257;64357;-59
2023/06/30 05:02:08;;;;;;;9.40;5.90;;;;;;;19.21;62.63;99478.05;105528;1258;61622;-56
2023/06/30 05:04:36;;;;;;;8.10;5.70;;;;;;;19.28;62.58;99478.39;105515;1254;63794;-58
2023/06/30 05:07:19;;;;;;;9.60;5.90;;;;;;;19.34;62.57;99485.09;106125;1251;59865;-62
2023/06/30 05:09:47;;;;;;;8.90;5.00;;;;;;;19.41;62.41;99487.98;105152;1251;60124;-60
2023/06/30 05:12:18;;;;;;;7.70;5.50;;;;;;;19.49;62.38;99487.45;105426;1256;62897;-63
2023/06/30 05:14:46;;;;;;;8.50;5.70;;;;;;;19.57;61.93;99489.61;105910;1257;61541;-58
2023/06/30 05:17:13;;;;;;;7.60;5.50;;;;;;;19.63;61.55;99495.61;105999;1251;63730;-58
2023/06/30 05:19:41;;;;;;;8.10;5.30;;;;;;;19.64;61.34;99497.02;105628;1254;59766;-62
2023/06/30 05:22:09;;;;;;;8.50;5.90;;;;;;;19.64;61.16;99492.98;105624;1250;59829;-57
2023/06/30 05:25:35;;;;;;;8.40;5.90;;;;;;;19.63;61.22;99498.57;105590;1251;64189;-60
2023/06/30 05:28:12;;;;;;;9.90;5.80;;;;;;;19.68;61.13;99502.55;105151;1251;61385;-58
2023/06/30 05:30:40;;;;;;;7.90;5.30;;;;;;;19.74;60.87;99497.89;105668;1258;63666;-59
2023/06/30 05:33:07;;;;;;;8.10;6.60;;;;;;;19.78;61.02;99498.20;105493;1257;59576;-57
2023/06/30 05:35:35;;;;;;;8.30;5.70;;;;;;;19.88;61.20;99505.42;105522;1251;59897;-59
2023/06/30 05:38:03;;;;;;;8.40;5.80;;;;;;;19.98;60.81;99501.44;105623;1251;65226;-64
2023/06/30 05:40:30;;;;;;;9.40;6.20;;;;;;;20.06;60.09;99502.91;105583;1256;60131;-64
2023/06/30 05:42:57;;;;;;;8.80;6.20;;;;;;;20.11;59.79;99501.35;105401;1258;62564;-61
2023/06/30 05:45:25;;;;;;;9.70;5.60;;;;;;;20.16;59.85;99500.73;105505;1252;59701;-63
2023/06/30 05:47:53;;;;;;;9.40;5.40;;;;;;;20.25;59.44;99498.21;105621;1251;59646;-61
2023/06/30 05:50:22;;;;;;;8.30;6.10;;;;;;;20.29;59.19;99487.28;105672;1251;67032;-56
2023/06/30 05:52:56;;;;;;;9.10;5.70;;;;;;;20.31;59.25;99479.17;105615;1256;60104;-57
2023/06/30 05:55:23;;;;;;;7.70;5.80;;;;;;;20.34;59.52;99482.02;104869;1251;63757;-58
2023/06/30 05:58:00;;;;;;;7.70;5.50;;;;;;;20.37;59.57;99477.48;105180;1251;59720;-59
2023/06/30 06:00:30;;;;;;;7.50;5.80;;;;;;;20.45;59.51;99481.70;105265;1257;60718;-58
2023/06/30 06:02:58;;;;;;;7.70;5.30;;;;;;;20.56;59.50;99485.00;105655;1257;64082;-58
2023/06/30 06:05:26;;;;;;;7.40;5.20;;;;;;;20.69;59.32;99478.86;105635;1251;62180;-56
2023/06/30 06:07:54;;;;;;;8.60;5.30;;;;;;;20.80;58.82;99479.98;105658;1254;63751;-60
2023/06/30 06:10:21;;;;;;;8.80;5.70;;;;;;;20.88;58.48;99479.45;105565;1260;59647;-57
2023/06/30 06:12:50;;;;;;;10.20;5.70;;;;;;;20.93;57.58;99482.42;105789;1250;59733;-56
2023/06/30 06:15:20;;;;;;;7.90;6.30;;;;;;;20.94;57.61;99479.73;105608;1258;64097;-58
2023/06/30 06:17:48;;;;;;;8.50;6.20;;;;;;;20.94;57.62;99481.14;105862;1251;60108;-62
2023/06/30 06:20:16;;;;;;;7.70;5.50;;;;;;;20.96;57.47;99482.13;105549;1251;62473;-59
2023/06/30 06:22:43;;;;;;;10.40;5.40;;;;;;;21.07;57.43;99486.52;105486;1251;59774;-58
2023/06/30 06:25:11;;;;;;;7.90;5.30;;;;;;;21.13;57.28;99482.46;105608;1254;59702;-61
2023/06/30 06:27:38;;;;;;;10.70;5.90;;;;;;;21.16;57.37;99481.54;105541;1251;64073;-61
2023/06/30 06:30:07;;;;;;;7.80;5.30;;;;;;;21.21;57.55;99477.17;105492;1257;61339;-59
2023/06/30 06:32:34;;;;;;;8.10;5.50;;;;;;;21.25;56.92;99480.70;105635;1257;63778;-63
2023/06/30 06:35:04;;;;;;;7.20;5.60;;;;;;;21.26;56.63;99483.13;105445;1258;59783;-59
2023/06/30 06:37:35;;;;;;;9.40;6.20;;;;;;;21.24;56.88;99485.85;105567;1252;60127;-57
2023/06/30 06:40:04;;;;;;;11.40;5.70;;;;;;;21.27;56.93;99494.40;105389;1257;64191;-60
2023/06/30 06:42:31;;;;;;;9.60;5.50;;;;;;;21.34;56.77;99499.79;106306;1251;61359;-56
2023/06/30 06:44:59;;;;;;;7.40;5.40;;;;;;;21.40;56.19;99495.27;105445;1256;74904;-56
2023/06/30 06:48:04;;;;;;;8.30;5.80;;;;;;;21.40;56.20;99497.91;106023;1253;59634;-60
2023/06/30 06:50:32;;;;;;;8.70;6.00;;;;;;;21.40;56.38;99504.20;105558;1251;59650;-61
2023/06/30 06:53:00;;;;;;;8.10;5.80;;;;;;;21.38;56.15;99518.95;105684;1250;62848;-54
2023/06/30 06:55:27;;;;;;;10.70;6.20;;;;;;;21.31;55.97;99507.27;105575;1255;60403;-55
2023/06/30 06:57:54;;;;;;;8.20;5.90;;;;;;;21.28;56.71;99497.69;105556;1251;63882;-57
2023/06/30 07:00:48;;;;;;;8.80;6.30;;;;;;;21.32;56.78;99493.88;105510;1253;59772;-62
2023/06/30 07:03:16;;;;;;;8.90;6.20;;;;;;;21.42;56.32;99488.75;106016;1257;60838;-59
2023/06/30 07:05:44;;;;;;;8.30;5.80;;;;;;;21.52;56.43;99487.77;105668;1251;64071;-60
2023/06/30 07:08:13;;;;;;;10.50;6.30;;;;;;;21.60;56.32;99485.48;105702;1251;61302;-59
2023/06/30 07:10:41;;;;;;;9.00;6.00;;;;;;;21.69;56.01;99480.68;105634;1254;64217;-63
2023/06/30 07:13:08;;;;;;;11.70;6.70;;;;;;;21.79;56.07;99473.85;106122;1253;59659;-60
2023/06/30 07:15:36;;;;;;;9.10;6.40;;;;;;;21.92;56.24;99470.70;105841;1251;59830;-59
2023/06/30 07:18:04;;;;;;;7.80;5.90;;;;;;;22.06;55.87;99477.90;105497;1257;64070;-57
2023/06/30 07:20:31;;;;;;;7.70;5.90;;;;;;;22.24;56.09;99477.12;105538;1257;60175;-56
2023/06/30 07:22:59;;;;;;;7.80;6.20;;;;;;;22.44;55.14;99478.55;105795;1251;63689;-59
2023/06/30 07:25:26;;;;;;;9.50;5.90;;;;;;;22.58;54.83;99476.59;105693;1251;59647;-57
2023/06/30 07:27:56;;;;;;;9.20;6.30;;;;;;;22.69;53.81;99480.70;105612;1256;59835;-59
2023/06/30 07:30:24;;;;;;;8.30;6.00;;;;;;;22.79;52.79;99475.52;105673;1251;64632;-60
2023/06/30 07:32:53;;;;;;;7.60;6.00;;;;;;;22.88;53.08;99476.67;106038;1251;61633;-64
2023/06/30 07:35:21;;;;;;;8.50;6.50;;;;;;;22.99;53.35;99477.90;106013;1254;63861;-57
2023/06/30 07:37:49;;;;;;;9.70;6.30;;;;;;;23.10;52.96;99473.61;105670;1257;60517;-59
2023/06/30 07:40:17;;;;;;;8.50;6.40;;;;;;;23.18;52.47;99474.04;109395;1251;58251;-59
2023/06/30 07:42:48;;;;;;;11.80;6.40;;;;;;;23.24;52.40;99469.80;109404;1251;64843;-58
2023/06/30 07:45:16;;;;;;;8.40;6.20;;;;;;;23.27;51.67;99474.48;107785;1251;61348;-55
2023/06/30 07:47:44;;;;;;;8.70;6.20;;;;;;;23.28;51.89;99472.09;105109;1260;63807;-57
2023/06/30 07:50:13;;;;;;;8.40;5.70;;;;;;;23.33;52.42;99470.89;105736;1251;60529;-58
2023/06/30 07:52:47;;;;;;;8.90;5.80;;;;;;;23.42;51.69;99473.32;105559;1257;60432;-57
2023/06/30 07:55:18;;;;;;;7.90;5.70;;;;;;;23.50;51.61;99471.11;105588;1251;65003;-58
2023/06/30 07:57:47;;;;;;;10.70;5.60;;;;;;;23.58;51.39;99468.02;105680;1251;61855;-59
2023/06/30 08:00:51;;;;;;;9.90;6.70;;;;;;;23.64;50.97;99462.48;105669;1251;64264;-60
2023/06/30 08:03:19;;;;;;;8.70;6.40;;;;;;;23.70;51.07;99469.99;105619;1257;60492;-59
2023/06/30 08:05:47;;;;;;;9.20;6.40;;;;;;;23.81;51.25;99464.67;105659;1252;60401;-59
2023/06/30 08:08:16;;;;;;;8.90;6.60;;;;;;;23.92;51.15;99466.40;105612;1251;64920;-58
2023/06/30 08:10:44;;;;;;;9.00;5.70;;;;;;;24.01;50.60;99467.73;105571;1257;61299;-56
2023/06/30 08:13:11;;;;;;;10.50;6.20;;;;;;;24.06;49.05;99466.40;105573;1256;63796;-56
2023/06/30 08:16:10;;;;;;;9.20;6.10;;;;;;;24.08;47.72;99475.68;105490;1252;60555;-64
2023/06/30 08:18:37;;;;;;;10.50;6.00;;;;;;;24.09;47.76;99466.19;105721;1257;60415;-60
2023/06/30 08:21:19;;;;;;;7.50;5.50;;;;;;;24.13;48.25;99467.52;105537;1253;63714;-56
2023/06/30 08:23:47;;;;;;;9.90;5.80;;;;;;;24.17;48.16;99467.71;105826;1251;61968;-56
2023/06/30 08:26:14;;;;;;;8.80;6.10;;;;;;;24.22;48.25;99462.36;105776;1251;63999;-57
2023/06/30 08:28:42;;;;;;;8.60;6.00;;;;;;;24.30;48.57;99464.63;105773;1252;60540;-61
2023/06/30 08:31:09;;;;;;;9.20;5.90;;;;;;;24.39;48.20;99467.44;105618;1251;59297;-56
2023/06/30 08:33:37;;;;;;;11.00;6.10;;;;;;;24.44;48.09;99470.14;105654;1257;65443;-59
2023/06/30 08:36:07;;;;;;;8.30;6.10;;;;;;;24.47;47.67;99471.27;106003;1251;61303;-57
2023/06/30 08:38:34;;;;;;;8.70;6.10;;;;;;;24.51;48.24;99470.60;105702;1253;63758;-56
2023/06/30 08:41:02;;;;;;;8.50;6.20;;;;;;;24.56;47.77;99470.30;105549;1251;60526;-59
2023/06/30 08:43:31;;;;;;;7.90;5.40;;;;;;;24.62;47.79;99466.46;105569;1258;61648;-58
2023/06/30 08:46:01;;;;;;;8.80;5.90;;;;;;;24.70;48.06;99468.50;105760;1251;63628;-58
2023/06/30 08:48:30;;;;;;;10.30;6.10;;;;;;;24.78;47.89;99475.42;105663;1251;61411;-58
2023/06/30 08:50:58;;;;;;;7.70;5.90;;;;;;;24.78;46.92;99466.65;105775;1251;64203;-68
2023/06/30 08:53:27;;;;;;;8.10;5.50;;;;;;;24.77;45.51;99471.31;105652;1254;60608;-67
2023/06/30 08:55:56;;;;;;;7.00;5.60;;;;;;;24.77;44.28;99478.67;105555;1251;60530;-57
2023/06/30 08:58:26;;;;;;;9.20;6.10;;;;;;;24.79;44.76;99472.83;106382;1256;64988;-66
2023/06/30 09:00:54;;;;;;;9.40;5.60;;;;;;;24.86;44.31;99467.52;105621;1256;60435;-58
2023/06/30 09:03:22;;;;;;;9.70;6.30;;;;;;;24.93;44.56;99466.63;105997;1253;63891;-61
2023/06/30 09:05:53;;;;;;;11.20;6.50;;;;;;;25.00;44.98;99464.02;105996;1251;60496;-58
2023/06/30 09:08:30;;;;;;;7.60;5.80;;;;;;;25.06;44.79;99466.88;107478;1250;60467;-60
2023/06/30 09:10:58;;;;;;;8.70;6.10;;;;;;;25.13;45.12;99458.87;106034;1251;64916;-61
2023/06/30 09:13:25;;;;;;;7.60;4.90;;;;;;;25.20;45.58;99461.77;106037;1251;61382;-60
2023/06/30 09:15:54;;;;;;;10.60;5.80;;;;;;;25.31;45.10;99460.63;105673;1254;63670;-60
2023/06/30 09:18:22;;;;;;;8.70;5.20;;;;;;;25.42;44.29;99463.45;105573;1256;60488;-62
2023/06/30 09:20:49;;;;;;;9.00;5.60;;;;;;;25.51;43.06;99465.18;105657;1251;60562;-61
2023/06/30 09:23:17;;;;;;;9.90;6.10;;;;;;;25.58;41.98;99462.11;105617;1251;64889;-61
2023/06/30 09:25:45;;;;;;;8.00;5.70;;;;;;;25.63;42.38;99464.55;106061;1251;61628;-57
2023/06/30 09:28:14;;;;;;;7.90;5.20;;;;;;;25.69;42.49;99460.62;105877;1251;62623;-65
2023/06/30 09:30:46;;;;;;;9.10;5.60;;;;;;;25.73;41.21;99456.38;105678;1251;60345;-58
2023/06/30 09:33:15;;;;;;;9.70;5.80;;;;;;;25.72;41.06;99459.09;105736;1254;60821;-61
2023/06/30 09:35:43;;;;;;;8.20;6.00;;;;;;;25.73;41.54;99464.66;105574;1257;67226;-59
2023/06/30 09:38:13;;;;;;;7.90;5.80;;;;;;;25.79;42.15;99454.89;105882;1251;61326;-62
2023/06/30 09:40:48;;;;;;;8.90;6.70;;;;;;;25.88;41.71;99452.23;107498;1252;63678;-59
2023/06/30 09:43:19;;;;;;;7.10;5.40;;;;;;;25.95;41.32;99453.17;105748;1251;60468;-63
2023/06/30 09:45:56;;;;;;;8.60;6.10;;;;;;;25.96;41.40;99454.58;106374;1252;60440;-58
2023/06/30 09:48:32;;;;;;;7.40;5.80;;;;;;;25.88;41.72;99446.64;106067;1251;64892;-57
2023/06/30 09:50:59;;;;;;;8.40;5.30;;;;;;;25.89;41.88;99446.44;105691;1251;60364;-58
2023/06/30 09:53:40;;;;;;;7.80;6.20;;;;;;;25.93;41.33;99445.52;105835;1254;62609;-61
2023/06/30 09:56:12;;;;;;;7.50;5.60;;;;;;;25.99;40.81;99448.88;106766;1251;60533;-64
2023/06/30 09:58:39;;;;;;;9.90;6.30;;;;;;;26.03;40.50;99443.88;105821;1251;60451;-62
2023/06/30 10:01:07;;;;;;;7.80;6.00;;;;;;;26.06;40.48;99444.77;105883;1253;64859;-59
2023/06/30 10:03:52;;;;;;;8.80;5.60;;;;;;;26.10;40.72;99439.66;105582;1251;61443;-56
2023/06/30 10:06:24;;;;;;;7.40;5.70;;;;;;;26.18;41.02;99433.66;105911;1254;63804;-58
2023/06/30 10:08:52;;;;;;;7.90;5.30;;;;;;;26.26;41.11;99433.56;105570;1251;60667;-59
2023/06/30 10:11:22;;;;;;;8.70;5.90;;;;;;;26.36;41.15;99434.83;105353;1251;60505;-56
2023/06/30 10:13:50;;;;;;;11.70;6.30;;;;;;;26.43;40.30;99442.45;105702;1251;63654;-65
2023/06/30 10:16:19;;;;;;;9.50;5.90;;;;;;;26.50;40.51;99437.20;105690;1251;61366;-58
2023/06/30 10:18:46;;;;;;;7.60;5.70;;;;;;;26.60;40.91;99438.63;105675;1257;63677;-56
2023/06/30 10:21:14;;;;;;;8.30;5.30;;;;;;;26.72;39.74;99440.18;105561;1254;60571;-60
2023/06/30 10:23:43;;;;;;;7.80;5.40;;;;;;;26.79;39.42;99436.49;105619;1251;60447;-61
2023/06/30 10:26:12;;;;;;;8.80;5.50;;;;;;;26.84;38.79;99442.53;105645;1252;63708;-64
2023/06/30 10:28:40;;;;;;;9.70;6.00;;;;;;;26.89;38.56;99443.13;105826;1251;61356;-64
2023/06/30 10:31:08;;;;;;;9.50;6.40;;;;;;;26.91;38.70;99434.67;105612;1254;63755;-62
2023/06/30 10:33:36;;;;;;;7.20;5.50;;;;;;;26.94;38.70;99428.19;105584;1250;60449;-66
2023/06/30 10:36:04;;;;;;;7.50;5.40;;;;;;;27.00;38.85;99418.20;105562;1259;60344;-64
2023/06/30 10:38:32;;;;;;;9.10;5.90;;;;;;;27.10;38.66;99417.33;105774;1257;64941;-64
2023/06/30 10:41:19;;;;;;;7.30;5.60;;;;;;;27.21;38.51;99426.12;106777;1251;61387;-61
2023/06/30 10:44:02;;;;;;;7.00;5.10;;;;;;;27.23;37.81;99424.31;105896;1251;63829;-59
2023/06/30 10:46:52;;;;;;;9.50;5.90;;;;;;;27.10;37.50;99423.86;105495;1252;60574;-57
2023/06/30 10:49:30;;;;;;;8.70;5.90;;;;;;;26.90;37.63;99430.79;105604;1256;60552;-58
2023/06/30 10:51:59;;;;;;;8.30;6.10;;;;;;;26.78;37.80;99429.79;105550;1251;64938;-61
2023/06/30 10:54:28;;;;;;;7.60;5.80;;;;;;;26.68;37.91;99425.75;105639;1251;61587;-57
2023/06/30 10:57:08;;;;;;;8.90;5.90;;;;;;;26.60;38.22;99420.48;105560;1254;64317;-58
2023/06/30 10:59:41;;;;;;;8.20;5.60;;;;;;;26.51;38.24;99424.86;105571;1252;60501;-61
2023/06/30 11:02:12;;;;;;;7.50;5.50;;;;;;;26.48;37.85;99430.66;105667;1251;60498;-62
2023/06/30 11:04:41;;;;;;;9.40;5.60;;;;;;;26.55;38.17;99419.56;105611;1257;64879;-58
2023/06/30 11:07:10;;;;;;;6.80;5.20;;;;;;;26.70;37.85;99410.27;105645;1256;69185;-58
2023/06/30 11:09:47;;;;;;;8.60;5.90;;;;;;;26.83;37.83;99401.02;105662;1251;63984;-56
2023/06/30 11:12:16;;;;;;;8.40;6.10;;;;;;;26.96;37.56;99390.80;105649;1257;60575;-67
2023/06/30 11:14:54;;;;;;;9.50;5.70;;;;;;;27.07;37.39;99397.27;105788;1254;60418;-60
2023/06/30 11:17:22;;;;;;;7.80;5.80;;;;;;;27.16;36.68;99401.52;105490;1251;63843;-60
2023/06/30 11:20:09;;;;;;;7.40;5.20;;;;;;;27.24;36.46;99390.02;105668;1257;60488;-62
2023/06/30 11:22:37;;;;;;;9.50;6.30;;;;;;;27.33;36.44;99384.44;105618;1255;62515;-56
2023/06/30 11:25:11;;;;;;;10.40;6.10;;;;;;;27.45;36.50;99382.96;105571;1257;60473;-60
2023/06/30 11:27:39;;;;;;;7.60;5.70;;;;;;;27.51;36.32;99382.05;105459;1251;60626;-60
2023/06/30 11:30:07;;;;;;;8.50;6.80;;;;;;;27.53;36.55;99377.20;105540;1251;65540;-59
2023/06/30 11:32:36;;;;;;;8.70;5.70;;;;;;;27.48;36.51;99383.44;105773;1257;60840;-54
2023/06/30 11:35:09;;;;;;;9.10;5.70;;;;;;;27.35;36.58;99382.78;108188;1254;63787;-60
2023/06/30 11:37:37;;;;;;;8.40;5.60;;;;;;;27.18;37.48;99382.45;105557;1257;60539;-59